Time;durP1;ratioP1;P1;durP2;ratioP2;P2;SDS_P1;SDS_P2;PMS_P1;PMS_P2;Temp;Humidity;BMP_temperature;BMP_pressure;BME280_temperature;BME280_humidity;BME280_pressure;Samples;Min_cycle;Max_cycle;Signal;HPM_P1;HPM_P2
2022/11/24 00:00:23;;;;;;;3.30;3.15;;;4.50;99.90;;;;;;5057684;28;20202;-76
2022/11/24 00:02:50;;;;;;;2.45;2.35;;;4.50;99.90;;;;;;5051959;28;20238;-77
2022/11/24 00:05:17;;;;;;;2.97;2.83;;;4.50;99.90;;;;;;5055611;28;20214;-77
2022/11/24 00:07:44;;;;;;;2.60;2.50;;;4.50;99.90;;;;;;5055400;28;20576;-76
2022/11/24 00:10:13;;;;;;;3.17;3.00;;;4.40;99.90;;;;;;5054496;28;20207;-76
2022/11/24 00:12:40;;;;;;;3.05;2.45;;;4.50;99.90;;;;;;5061975;28;20214;-76
2022/11/24 00:15:08;;;;;;;2.97;2.78;;;4.50;99.90;;;;;;5059438;28;20663;-76
2022/11/24 00:17:35;;;;;;;3.10;3.00;;;4.50;99.90;;;;;;5057448;28;20604;-74
2022/11/24 00:20:03;;;;;;;3.10;2.92;;;4.50;99.90;;;;;;5055741;28;20202;-75
2022/11/24 00:22:31;;;;;;;3.00;2.90;;;4.50;99.90;;;;;;5055767;28;20215;-74
2022/11/24 00:24:58;;;;;;;2.72;2.63;;;4.50;99.90;;;;;;5063296;28;20201;-74
2022/11/24 00:27:27;;;;;;;3.08;2.97;;;4.50;99.90;;;;;;5057624;28;20222;-75
2022/11/24 00:29:54;;;;;;;3.25;3.05;;;4.40;99.90;;;;;;5060913;28;20312;-75
2022/11/24 00:32:22;;;;;;;3.15;2.90;;;4.40;99.90;;;;;;5051842;28;20696;-74
2022/11/24 00:34:49;;;;;;;2.85;2.70;;;4.50;99.90;;;;;;5053788;28;20211;-74
2022/11/24 00:37:17;;;;;;;3.00;2.90;;;4.40;99.90;;;;;;5061281;28;20217;-74
2022/11/24 00:39:44;;;;;;;2.83;2.63;;;4.40;99.90;;;;;;5061646;28;20244;-75
2022/11/24 00:42:13;;;;;;;2.80;2.70;;;4.40;99.90;;;;;;5058756;28;20233;-77
2022/11/24 00:44:42;;;;;;;3.10;3.00;;;4.40;99.90;;;;;;5051951;28;20195;-75
2022/11/24 00:47:09;;;;;;;3.22;3.03;;;4.40;99.90;;;;;;5054590;28;20280;-82
2022/11/24 00:49:36;;;;;;;2.95;2.83;;;4.30;99.90;;;;;;5057727;28;20195;-79
2022/11/24 00:52:04;;;;;;;2.85;2.70;;;4.30;99.90;;;;;;5059616;28;20726;-75
2022/11/24 00:54:31;;;;;;;3.10;3.00;;;4.30;99.90;;;;;;5062552;28;20218;-76
2022/11/24 00:56:59;;;;;;;2.60;2.45;;;4.30;99.90;;;;;;5054351;28;20227;-76
2022/11/24 00:59:26;;;;;;;2.75;2.63;;;4.30;99.90;;;;;;5063134;28;20201;-79
2022/11/24 01:01:55;;;;;;;2.85;2.75;;;4.30;99.90;;;;;;5059948;28;20241;-77
2022/11/24 01:04:23;;;;;;;3.28;3.13;;;4.20;99.90;;;;;;5056145;28;20703;-80
2022/11/24 01:06:50;;;;;;;3.03;2.83;;;4.20;99.90;;;;;;5056004;28;20278;-78
2022/11/24 01:09:17;;;;;;;2.72;2.63;;;4.30;99.90;;;;;;5057063;28;20287;-80
2022/11/24 01:14:29;;;;;;;3.50;3.30;;;4.20;99.90;;;;;;5061424;28;20698;-75
2022/11/24 01:16:57;;;;;;;3.00;2.90;;;4.20;99.90;;;;;;5060352;28;20225;-76
2022/11/24 01:19:24;;;;;;;2.97;2.88;;;4.10;99.90;;;;;;5060290;28;20194;-80
2022/11/24 01:21:52;;;;;;;3.08;2.88;;;4.10;99.90;;;;;;5059993;28;20279;-75
2022/11/24 01:24:19;;;;;;;3.03;2.83;;;4.00;99.90;;;;;;5061936;28;20203;-77
2022/11/24 01:26:46;;;;;;;3.10;2.90;;;4.00;99.90;;;;;;5057814;28;20861;-78
2022/11/24 01:29:14;;;;;;;2.78;2.67;;;4.00;99.90;;;;;;5054910;28;20194;-77
2022/11/24 01:31:41;;;;;;;2.80;2.60;;;4.00;99.90;;;;;;5060820;28;20227;-80
2022/11/24 01:34:10;;;;;;;3.25;2.97;;;4.00;99.90;;;;;;5059661;28;20210;-76
2022/11/24 01:36:37;;;;;;;3.20;3.08;;;4.00;99.90;;;;;;5055269;28;20222;-77
2022/11/24 01:39:06;;;;;;;2.50;2.40;;;4.00;99.90;;;;;;5062248;28;20202;-80
2022/11/24 01:41:35;;;;;;;3.50;3.30;;;4.00;99.90;;;;;;5060892;28;20228;-75
2022/11/24 01:44:18;;;;;;;2.88;2.78;;;4.00;99.90;;;;;;5060496;28;20198;-75
2022/11/24 01:46:49;;;;;;;3.40;3.20;;;4.00;99.90;;;;;;5054973;28;20225;-76
2022/11/24 01:49:21;;;;;;;3.40;3.20;;;4.00;99.90;;;;;;5057672;28;20195;-77
2022/11/24 01:51:51;;;;;;;2.58;2.47;;;4.00;99.90;;;;;;5058229;28;20226;-78
2022/11/24 01:54:22;;;;;;;3.33;3.00;;;4.00;99.90;;;;;;5058296;28;20340;-78
2022/11/24 01:56:54;;;;;;;2.60;2.50;;;4.00;99.90;;;;;;5057033;28;20268;-77
2022/11/24 01:59:21;;;;;;;3.00;2.80;;;3.90;99.90;;;;;;5060160;28;20214;-77
2022/11/24 02:01:51;;;;;;;2.72;2.55;;;3.90;99.90;;;;;;5054781;28;20219;-74
2022/11/24 02:04:24;;;;;;;3.00;2.90;;;3.90;99.90;;;;;;5057672;28;20658;-75
2022/11/24 02:06:53;;;;;;;3.58;3.38;;;3.90;99.90;;;;;;5060061;28;20221;-78
2022/11/24 02:09:24;;;;;;;3.00;2.90;;;3.90;99.90;;;;;;5055049;28;20199;-77
2022/11/24 02:11:53;;;;;;;3.05;2.88;;;3.90;99.90;;;;;;5055312;28;20276;-77
2022/11/24 02:14:23;;;;;;;3.05;2.85;;;3.90;99.90;;;;;;5055739;28;20198;-76
2022/11/24 02:16:51;;;;;;;3.10;2.90;;;3.90;99.90;;;;;;5062890;28;20226;-79
2022/11/24 02:19:32;;;;;;;2.75;2.65;;;3.80;99.90;;;;;;5058230;28;20244;-74
2022/11/24 02:22:00;;;;;;;2.92;2.83;;;3.80;99.90;;;;;;5056598;28;20229;-76
2022/11/24 02:24:36;;;;;;;3.22;3.03;;;3.80;99.90;;;;;;5058487;28;20733;-75
2022/11/24 02:27:05;;;;;;;2.95;2.85;;;3.70;99.90;;;;;;5058958;28;20267;-75
2022/11/24 02:29:32;;;;;;;3.42;3.30;;;3.60;99.90;;;;;;5056601;28;20283;-76
2022/11/24 02:32:03;;;;;;;2.80;2.70;;;3.60;99.90;;;;;;5059884;28;20218;-75
2022/11/24 02:34:31;;;;;;;2.95;2.78;;;3.60;99.90;;;;;;5061423;28;20200;-77
2022/11/24 02:36:58;;;;;;;2.92;2.83;;;3.60;99.90;;;;;;5055377;28;20773;-75
2022/11/24 02:39:25;;;;;;;2.65;2.55;;;3.60;99.90;;;;;;5053295;28;20199;-76
2022/11/24 02:41:57;;;;;;;3.20;3.00;;;3.60;99.90;;;;;;5057144;28;21547;-80
2022/11/24 02:44:30;;;;;;;3.03;2.83;;;3.70;99.90;;;;;;5055348;28;20210;-78
2022/11/24 02:47:05;;;;;;;3.17;2.97;;;3.70;99.90;;;;;;5053086;28;20308;-76
2022/11/24 02:49:32;;;;;;;3.10;2.90;;;3.70;99.90;;;;;;5058513;28;20198;-78
2022/11/24 02:52:00;;;;;;;2.97;2.78;;;3.70;99.90;;;;;;5060655;28;20596;-74
2022/11/24 02:54:27;;;;;;;3.17;2.97;;;3.70;99.90;;;;;;5055922;28;20203;-76
2022/11/24 02:56:54;;;;;;;3.00;2.90;;;3.70;99.90;;;;;;5060784;28;20752;-73
2022/11/24 02:59:21;;;;;;;2.70;2.60;;;3.60;99.90;;;;;;5058515;28;20660;-72
2022/11/24 03:01:50;;;;;;;3.00;2.80;;;3.60;99.90;;;;;;5055599;28;20218;-74
2022/11/24 03:04:17;;;;;;;3.10;3.00;;;3.60;99.90;;;;;;5060638;28;20198;-73
2022/11/24 03:06:44;;;;;;;3.13;3.00;;;3.60;99.90;;;;;;5058681;28;20272;-75
2022/11/24 03:09:11;;;;;;;2.65;2.55;;;3.60;99.90;;;;;;5052117;28;20210;-73
2022/11/24 03:11:39;;;;;;;3.47;3.28;;;3.60;99.90;;;;;;5055555;28;20227;-75
2022/11/24 03:14:06;;;;;;;3.00;2.90;;;3.60;99.90;;;;;;5061262;28;20198;-77
2022/11/24 03:16:34;;;;;;;3.13;3.03;;;3.60;99.90;;;;;;5053630;28;20218;-74
2022/11/24 03:19:03;;;;;;;3.33;3.13;;;3.60;99.90;;;;;;5063689;28;20229;-76
2022/11/24 03:21:30;;;;;;;3.22;3.03;;;3.60;99.90;;;;;;5051345;28;20215;-76
2022/11/24 03:23:58;;;;;;;3.53;3.33;;;3.60;99.90;;;;;;5038956;28;20214;-75
2022/11/24 03:26:26;;;;;;;3.03;2.88;;;3.50;99.90;;;;;;5038347;28;20214;-80
2022/11/24 03:28:56;;;;;;;3.17;2.97;;;3.50;99.90;;;;;;5037909;28;20210;-77
2022/11/24 03:31:24;;;;;;;3.17;2.97;;;3.50;99.90;;;;;;5043949;28;20211;-77
2022/11/24 03:33:52;;;;;;;3.22;3.13;;;3.40;99.90;;;;;;5042965;28;20618;-79
2022/11/24 03:36:20;;;;;;;3.70;3.50;;;3.40;99.90;;;;;;5051353;28;20222;-75
2022/11/24 03:38:49;;;;;;;3.20;3.10;;;3.30;99.90;;;;;;5062520;28;20197;-74
2022/11/24 03:41:16;;;;;;;3.38;3.17;;;3.30;99.90;;;;;;5055442;28;20222;-76
2022/11/24 03:43:43;;;;;;;3.13;2.92;;;3.30;99.90;;;;;;5053537;28;20190;-74
2022/11/24 03:46:11;;;;;;;3.20;3.00;;;3.30;99.90;;;;;;5061972;28;20698;-74
2022/11/24 03:48:38;;;;;;;3.40;3.25;;;3.30;99.90;;;;;;5057393;28;20225;-78
2022/11/24 03:51:06;;;;;;;3.03;2.92;;;3.30;99.90;;;;;;5065883;28;20310;-74
2022/11/24 03:53:35;;;;;;;2.97;2.88;;;3.30;99.90;;;;;;5059369;28;20664;-77
2022/11/24 03:56:02;;;;;;;3.40;3.20;;;3.30;99.90;;;;;;5059497;28;20234;-78
2022/11/24 03:58:30;;;;;;;3.40;3.10;;;3.20;99.90;;;;;;5056804;28;20213;-75
2022/11/24 04:00:58;;;;;;;3.10;3.00;;;3.20;99.90;;;;;;5058249;28;20222;-76
2022/11/24 04:03:26;;;;;;;3.03;2.92;;;3.20;99.90;;;;;;5059950;28;20202;-77
2022/11/24 04:05:53;;;;;;;3.05;2.95;;;3.20;99.90;;;;;;5058055;28;20234;-75
2022/11/24 04:08:20;;;;;;;3.05;2.85;;;3.10;99.90;;;;;;5063493;28;20367;-77
2022/11/24 04:10:52;;;;;;;2.88;2.78;;;3.10;99.90;;;;;;5062925;28;20230;-76
2022/11/24 04:13:20;;;;;;;2.80;2.70;;;3.10;99.90;;;;;;5059588;28;20217;-74
2022/11/24 04:15:47;;;;;;;3.28;3.08;;;3.10;99.90;;;;;;5056680;28;20233;-75
2022/11/24 04:18:15;;;;;;;2.78;2.67;;;3.10;99.90;;;;;;5064804;28;20652;-75
2022/11/24 04:20:42;;;;;;;3.38;3.20;;;3.10;99.90;;;;;;5060714;28;20202;-77
2022/11/24 04:23:11;;;;;;;3.25;3.05;;;3.00;99.90;;;;;;5060285;28;20209;-75
2022/11/24 04:25:38;;;;;;;3.05;2.88;;;3.10;99.90;;;;;;5060307;28;20241;-76
2022/11/24 04:28:08;;;;;;;3.30;3.20;;;3.10;99.90;;;;;;5061348;28;20761;-76
2022/11/24 04:30:37;;;;;;;3.53;3.33;;;3.10;99.90;;;;;;5063447;28;20249;-77
2022/11/24 04:33:04;;;;;;;3.17;3.00;;;3.10;99.90;;;;;;5064008;28;20194;-75
2022/11/24 04:35:32;;;;;;;3.67;3.47;;;3.10;99.90;;;;;;5063662;28;20233;-78
2022/11/24 04:38:02;;;;;;;3.58;3.38;;;3.10;99.90;;;;;;5061374;28;20214;-75
2022/11/24 04:40:30;;;;;;;3.45;3.25;;;3.10;99.90;;;;;;5066596;28;20195;-75
2022/11/24 04:42:57;;;;;;;3.50;3.30;;;3.10;99.90;;;;;;5062800;28;20201;-75
2022/11/24 04:45:26;;;;;;;3.88;3.67;;;3.10;99.90;;;;;;5067885;28;20210;-74
2022/11/24 04:47:53;;;;;;;3.53;3.38;;;3.10;99.90;;;;;;5059260;28;20296;-75
2022/11/24 04:50:20;;;;;;;8.43;6.65;;;3.10;99.90;;;;;;5060986;28;20198;-75
2022/11/24 04:52:48;;;;;;;8.90;7.03;;;3.10;99.90;;;;;;5065019;28;20692;-77
2022/11/24 04:55:15;;;;;;;11.35;8.93;;;3.10;99.90;;;;;;5065974;28;20218;-76
2022/11/24 04:57:42;;;;;;;14.02;8.63;;;3.10;99.90;;;;;;5066487;28;20322;-75
2022/11/24 05:00:11;;;;;;;13.55;8.43;;;3.10;99.90;;;;;;5061393;28;20816;-75
2022/11/24 05:02:41;;;;;;;9.93;7.15;;;3.10;99.90;;;;;;5063099;28;20231;-78
2022/11/24 05:05:08;;;;;;;7.35;5.68;;;3.10;99.90;;;;;;5060577;28;20199;-77
2022/11/24 05:07:36;;;;;;;6.88;5.68;;;3.10;99.90;;;;;;5061848;28;20214;-76
2022/11/24 05:12:56;;;;;;;5.43;4.93;;;3.10;99.90;;;;;;5061593;28;20300;-74
2022/11/24 05:15:23;;;;;;;3.72;3.42;;;3.10;99.90;;;;;;5060533;28;20345;-74
2022/11/24 05:17:53;;;;;;;3.67;3.38;;;3.10;99.90;;;;;;5060357;28;20696;-77
2022/11/24 05:20:20;;;;;;;4.60;4.20;;;3.10;99.90;;;;;;5061921;28;20202;-76
2022/11/24 05:22:48;;;;;;;4.60;4.20;;;3.10;99.90;;;;;;5060076;28;20588;-79
2022/11/24 05:25:15;;;;;;;4.90;4.50;;;3.10;99.90;;;;;;5065594;28;20221;-74
2022/11/24 05:27:43;;;;;;;4.30;4.00;;;3.10;99.90;;;;;;5060661;28;20215;-75
2022/11/24 05:30:11;;;;;;;4.05;3.65;;;3.10;99.90;;;;;;5055209;28;20659;-74
2022/11/24 05:32:39;;;;;;;3.78;3.58;;;3.10;99.90;;;;;;5064065;28;20222;-74
2022/11/24 05:35:10;;;;;;;3.70;3.50;;;3.10;99.90;;;;;;5055643;28;20194;-74
2022/11/24 05:37:38;;;;;;;3.53;3.33;;;3.10;99.90;;;;;;5064676;28;20217;-74
2022/11/24 05:40:06;;;;;;;3.90;3.60;;;3.10;99.90;;;;;;5057131;28;20595;-76
2022/11/24 05:42:43;;;;;;;3.67;3.47;;;3.10;99.90;;;;;;5063943;28;20215;-75
2022/11/24 05:45:12;;;;;;;3.72;3.53;;;3.10;99.90;;;;;;5061936;28;20219;-74
2022/11/24 05:47:41;;;;;;;3.40;3.20;;;3.10;99.90;;;;;;5058713;28;20218;-75
2022/11/24 05:50:12;;;;;;;3.10;2.90;;;3.10;99.90;;;;;;5060834;28;20199;-76
2022/11/24 05:52:40;;;;;;;3.67;3.47;;;3.10;99.90;;;;;;5063035;28;20858;-78
2022/11/24 05:55:09;;;;;;;3.00;2.90;;;3.10;99.90;;;;;;5064343;28;20740;-77
2022/11/24 05:57:36;;;;;;;3.55;3.38;;;3.10;99.90;;;;;;5062151;28;20221;-74
2022/11/24 06:00:06;;;;;;;3.38;3.17;;;3.20;99.90;;;;;;5059629;28;20203;-74
2022/11/24 06:02:33;;;;;;;3.40;3.20;;;3.10;99.90;;;;;;5059345;28;20241;-75
2022/11/24 06:05:00;;;;;;;3.45;3.25;;;3.10;99.90;;;;;;5061878;28;20639;-74
2022/11/24 06:07:29;;;;;;;3.58;3.40;;;3.10;99.90;;;;;;5070521;28;20230;-78
2022/11/24 06:09:56;;;;;;;3.40;3.20;;;3.10;99.90;;;;;;5056675;28;20280;-77
2022/11/24 06:12:24;;;;;;;3.47;3.28;;;3.10;99.90;;;;;;5061030;28;20272;-77
2022/11/24 06:14:51;;;;;;;3.70;3.50;;;3.10;99.90;;;;;;5061725;28;20207;-74
2022/11/24 06:17:19;;;;;;;3.97;3.67;;;3.10;99.90;;;;;;5064048;28;20222;-77
2022/11/24 06:19:48;;;;;;;3.45;3.22;;;3.10;99.90;;;;;;5057658;28;20202;-77
2022/11/24 06:22:17;;;;;;;3.83;3.63;;;3.10;99.90;;;;;;5058896;28;20303;-78
2022/11/24 06:24:48;;;;;;;3.90;3.60;;;3.00;99.90;;;;;;5063100;28;20686;-76
2022/11/24 06:27:16;;;;;;;3.50;3.30;;;3.00;99.90;;;;;;5056425;28;20691;-75
2022/11/24 06:29:44;;;;;;;3.58;3.38;;;3.00;99.90;;;;;;5063771;28;20219;-75
2022/11/24 06:32:11;;;;;;;3.60;3.40;;;3.00;99.90;;;;;;5054469;28;20222;-75
2022/11/24 06:34:38;;;;;;;3.13;3.03;;;3.00;99.90;;;;;;5047257;28;20695;-76
2022/11/24 06:37:05;;;;;;;3.60;3.40;;;3.00;99.90;;;;;;5057298;28;20230;-75
2022/11/24 06:39:33;;;;;;;3.47;3.28;;;2.90;99.90;;;;;;5064235;28;20209;-76
2022/11/24 06:42:02;;;;;;;3.50;3.30;;;2.90;99.90;;;;;;5066980;28;20218;-75
2022/11/24 06:44:29;;;;;;;3.55;3.40;;;2.90;99.90;;;;;;5061001;28;20206;-74
2022/11/24 06:46:56;;;;;;;3.60;3.40;;;2.90;99.90;;;;;;5059173;28;20227;-78
2022/11/24 06:49:25;;;;;;;3.67;3.47;;;2.90;99.90;;;;;;5056561;28;20218;-78
2022/11/24 06:51:55;;;;;;;4.22;3.92;;;2.90;99.90;;;;;;5060258;28;20226;-79
2022/11/24 06:54:22;;;;;;;4.40;4.10;;;2.80;99.90;;;;;;5061440;28;20289;-75
2022/11/24 06:56:49;;;;;;;4.30;4.10;;;2.80;99.90;;;;;;5057751;28;20224;-76
2022/11/24 06:59:20;;;;;;;3.92;3.70;;;2.80;99.90;;;;;;5060074;28;20201;-75
2022/11/24 07:01:47;;;;;;;4.35;4.05;;;2.90;99.90;;;;;;5056130;28;20839;-74
2022/11/24 07:04:15;;;;;;;3.65;3.45;;;2.90;99.90;;;;;;5063207;28;20692;-76
2022/11/24 07:06:43;;;;;;;3.70;3.50;;;2.90;99.90;;;;;;5053642;28;20222;-75
2022/11/24 07:09:12;;;;;;;3.58;3.35;;;3.00;99.90;;;;;;5054838;28;20320;-76
2022/11/24 07:11:42;;;;;;;3.35;3.20;;;3.00;99.90;;;;;;5054809;28;20227;-77
2022/11/24 07:14:10;;;;;;;3.25;3.15;;;3.10;99.90;;;;;;5055953;28;20198;-77
2022/11/24 07:16:39;;;;;;;4.47;4.18;;;3.10;99.90;;;;;;5058190;28;20226;-78
2022/11/24 07:19:07;;;;;;;3.97;3.67;;;3.20;99.90;;;;;;5060079;28;20243;-76
2022/11/24 07:21:34;;;;;;;4.07;3.88;;;3.10;99.90;;;;;;5053246;28;20219;-76
2022/11/24 07:24:02;;;;;;;3.92;3.65;;;3.00;99.90;;;;;;5052487;28;20934;-74
2022/11/24 07:26:29;;;;;;;4.07;3.88;;;2.90;99.90;;;;;;5059844;28;20229;-76
2022/11/24 07:28:56;;;;;;;4.28;3.97;;;2.90;99.90;;;;;;5054906;28;20602;-76
2022/11/24 07:31:24;;;;;;;4.20;4.00;;;2.90;99.90;;;;;;5055509;28;20229;-77
2022/11/24 07:33:54;;;;;;;4.72;4.43;;;2.90;99.90;;;;;;5051510;28;20683;-78
2022/11/24 07:36:22;;;;;;;3.92;3.63;;;3.00;99.90;;;;;;5055712;28;20217;-77
2022/11/24 07:38:50;;;;;;;3.72;3.53;;;2.90;99.90;;;;;;5060025;28;20261;-78
2022/11/24 07:41:19;;;;;;;4.35;4.05;;;2.80;99.90;;;;;;5056747;28;20229;-75
2022/11/24 07:43:49;;;;;;;3.92;3.72;;;2.80;99.90;;;;;;5052765;28;20287;-78
2022/11/24 07:46:18;;;;;;;3.90;3.70;;;2.80;99.90;;;;;;5056760;28;20238;-76
2022/11/24 07:48:46;;;;;;;4.40;4.07;;;2.80;99.90;;;;;;5055293;28;20215;-75
2022/11/24 07:51:15;;;;;;;4.53;4.13;;;2.80;99.90;;;;;;5058752;28;20711;-75
2022/11/24 07:53:43;;;;;;;4.88;4.47;;;2.90;99.90;;;;;;5058391;28;20207;-77
2022/11/24 07:56:11;;;;;;;4.93;4.53;;;2.90;99.90;;;;;;5059487;28;20706;-74
2022/11/24 07:58:38;;;;;;;5.15;4.75;;;3.10;99.90;;;;;;5058213;28;20692;-74
2022/11/24 08:01:13;;;;;;;4.47;4.18;;;4.00;99.90;;;;;;5056809;28;20226;-77
2022/11/24 08:03:42;;;;;;;5.55;4.85;;;5.40;99.90;;;;;;5059636;28;20202;-77
2022/11/24 08:06:10;;;;;;;4.43;4.03;;;6.50;99.90;;;;;;5053423;28;20277;-77
2022/11/24 08:08:38;;;;;;;3.70;3.50;;;7.60;99.90;;;;;;5057874;28;20210;-79
2022/11/24 08:11:07;;;;;;;4.05;3.70;;;8.60;99.90;;;;;;5054132;28;20231;-76
2022/11/24 08:13:35;;;;;;;3.58;3.38;;;9.00;99.90;;;;;;5058403;28;20857;-76
2022/11/24 08:16:06;;;;;;;3.88;3.58;;;9.70;99.90;;;;;;5053658;28;20229;-77
2022/11/24 08:18:34;;;;;;;3.40;3.20;;;10.30;99.90;;;;;;5056870;28;20201;-72
2022/11/24 08:21:01;;;;;;;3.72;3.35;;;10.90;99.90;;;;;;5059396;28;20233;-74
2022/11/24 08:23:29;;;;;;;3.97;3.67;;;11.30;99.90;;;;;;5058330;28;20198;-77
2022/11/24 08:26:03;;;;;;;4.50;4.10;;;11.40;99.90;;;;;;5063466;28;20232;-76
2022/11/24 08:28:33;;;;;;;3.50;3.30;;;11.10;99.90;;;;;;5060697;28;20213;-75
2022/11/24 08:31:06;;;;;;;3.50;3.20;;;11.00;99.90;;;;;;5058908;28;20782;-75
2022/11/24 08:33:33;;;;;;;3.95;3.25;;;10.90;99.90;;;;;;5059396;28;20206;-80
2022/11/24 08:36:09;;;;;;;3.70;3.40;;;11.00;99.90;;;;;;5058794;28;20226;-75
2022/11/24 08:38:37;;;;;;;3.70;3.40;;;11.10;99.90;;;;;;5057147;28;20202;-75
2022/11/24 08:41:08;;;;;;;3.40;3.10;;;11.50;99.90;;;;;;5054462;28;20830;-79
2022/11/24 08:43:35;;;;;;;3.42;3.20;;;11.60;99.90;;;;;;5059024;28;20253;-80
2022/11/24 08:46:05;;;;;;;4.47;3.72;;;11.90;99.90;;;;;;5053399;28;20233;-75
2022/11/24 08:48:33;;;;;;;4.15;3.78;;;12.20;99.90;;;;;;5057546;28;20219;-82
2022/11/24 08:51:06;;;;;;;4.97;4.30;;;12.40;99.90;;;;;;5059429;28;20226;-78
2022/11/24 08:53:33;;;;;;;4.10;3.70;;;12.50;99.90;;;;;;5056064;28;20187;-80
2022/11/24 08:56:01;;;;;;;4.50;4.10;;;12.60;99.90;;;;;;5055924;28;20422;-76
2022/11/24 08:58:31;;;;;;;3.55;3.25;;;12.70;99.90;;;;;;5051101;28;20285;-77
2022/11/24 09:01:04;;;;;;;4.25;3.55;;;12.70;99.90;;;;;;5054857;28;20683;-79
2022/11/24 09:03:31;;;;;;;4.75;4.28;;;13.10;99.90;;;;;;5056295;28;20190;-78
2022/11/24 09:05:59;;;;;;;8.60;3.60;;;14.20;99.90;;;;;;5052926;28;20229;-77
2022/11/24 09:08:26;;;;;;;4.45;4.05;;;15.70;99.90;;;;;;5052732;28;20206;-78
2022/11/24 09:10:53;;;;;;;3.78;3.47;;;17.00;99.90;;;;;;5059348;28;20237;-78
2022/11/24 09:13:21;;;;;;;3.13;2.92;;;18.40;99.90;;;;;;5060186;28;20676;-77
2022/11/24 09:15:50;;;;;;;4.55;3.17;;;19.80;99.90;;;;;;5057129;28;20250;-76
2022/11/24 09:18:17;;;;;;;3.67;3.33;;;20.80;99.10;;;;;;5064089;28;20209;-75
2022/11/24 09:20:44;;;;;;;3.72;3.20;;;21.70;93.80;;;;;;5058207;28;20198;-76
2022/11/24 09:23:12;;;;;;;3.83;3.40;;;22.10;90.90;;;;;;5059808;28;20199;-76
2022/11/24 09:25:39;;;;;;;3.13;2.75;;;22.30;89.30;;;;;;5057187;28;20529;-75
2022/11/24 09:28:07;;;;;;;3.00;2.80;;;22.80;85.60;;;;;;5053620;28;20198;-77
2022/11/24 09:30:36;;;;;;;3.55;3.22;;;22.80;79.30;;;;;;5061769;28;20219;-77
2022/11/24 09:33:05;;;;;;;3.13;2.83;;;22.20;79.90;;;;;;5057149;28;20207;-82
2022/11/24 09:35:33;;;;;;;3.72;2.72;;;21.80;81.70;;;;;;5057345;28;20215;-75
2022/11/24 09:38:00;;;;;;;4.68;2.70;;;20.90;83.00;;;;;;5054245;28;20250;-78
2022/11/24 09:40:28;;;;;;;3.65;3.35;;;19.70;87.40;;;;;;5052056;28;20668;-80
2022/11/24 09:43:02;;;;;;;4.97;3.25;;;18.40;90.90;;;;;;5053563;28;20195;-81
2022/11/24 09:45:43;;;;;;;3.90;3.00;;;17.40;93.00;;;;;;5058342;28;20429;-77
2022/11/24 09:48:18;;;;;;;3.05;2.85;;;16.40;95.30;;;;;;5053137;28;20194;-76
2022/11/24 09:50:49;;;;;;;4.22;2.70;;;15.60;96.60;;;;;;5051428;28;20219;-77
2022/11/24 09:53:23;;;;;;;3.45;3.13;;;15.30;98.40;;;;;;5057454;28;20648;-76
2022/11/24 09:55:54;;;;;;;3.33;3.03;;;14.80;99.90;;;;;;5053971;28;20240;-77
2022/11/24 09:58:43;;;;;;;3.75;3.42;;;14.80;99.90;;;;;;5053650;28;20567;-79
2022/11/24 10:01:15;;;;;;;3.40;3.05;;;14.80;99.90;;;;;;5047314;28;20293;-77
2022/11/24 10:03:47;;;;;;;4.28;3.63;;;14.80;99.90;;;;;;5058526;28;20718;-78
2022/11/24 10:06:24;;;;;;;3.72;2.80;;;14.70;99.90;;;;;;5058043;28;20257;-80
2022/11/24 10:09:10;;;;;;;4.70;3.25;;;14.50;99.90;;;;;;5056565;28;20226;-81
2022/11/24 10:11:43;;;;;;;3.13;2.55;;;14.20;99.90;;;;;;5054683;28;20524;-77
2022/11/24 10:14:30;;;;;;;3.67;3.00;;;14.20;99.90;;;;;;5061248;28;20663;-80
2022/11/24 10:17:04;;;;;;;3.17;2.85;;;14.30;99.90;;;;;;5053189;28;20463;-79
2022/11/24 10:19:44;;;;;;;3.40;3.17;;;14.30;99.90;;;;;;5051980;28;20361;-81
2022/11/24 10:22:29;;;;;;;2.88;2.67;;;14.50;99.90;;;;;;5056132;28;20229;-80
2022/11/24 10:25:13;;;;;;;4.00;2.90;;;14.60;99.90;;;;;;5055770;28;20209;-82
2022/11/24 10:27:44;;;;;;;4.68;3.20;;;14.80;99.90;;;;;;5064351;28;20711;-76
2022/11/24 10:30:15;;;;;;;4.28;2.85;;;14.70;99.90;;;;;;5058704;28;20222;-79
2022/11/24 10:32:47;;;;;;;3.03;2.72;;;14.50;99.90;;;;;;5060298;28;20218;-77
2022/11/24 10:35:21;;;;;;;3.53;2.97;;;14.50;99.90;;;;;;5058711;28;20224;-75
2022/11/24 10:37:57;;;;;;;2.85;2.58;;;14.60;99.90;;;;;;5054730;28;20223;-76
2022/11/24 10:40:38;;;;;;;3.17;2.88;;;14.60;99.90;;;;;;5051257;28;20199;-79
2022/11/24 10:43:10;;;;;;;3.53;2.80;;;14.50;99.90;;;;;;5036309;28;20695;-75
2022/11/24 10:45:39;;;;;;;2.75;2.55;;;14.70;99.90;;;;;;5038548;28;20215;-79
2022/11/24 10:48:12;;;;;;;3.88;3.30;;;14.90;99.90;;;;;;5044497;28;20198;-76
2022/11/24 10:50:42;;;;;;;3.75;2.95;;;15.10;99.90;;;;;;5041585;28;20208;-76
2022/11/24 10:53:18;;;;;;;3.33;3.03;;;15.20;99.90;;;;;;5044445;28;20205;-79
2022/11/24 10:56:03;;;;;;;3.22;2.92;;;15.30;99.90;;;;;;5037234;28;20249;-76
2022/11/24 10:58:32;;;;;;;3.20;2.90;;;15.10;99.90;;;;;;5037818;28;20563;-77
2022/11/24 11:01:01;;;;;;;4.22;3.60;;;15.30;99.90;;;;;;5043082;28;20722;-76
2022/11/24 11:03:31;;;;;;;2.95;2.75;;;15.50;99.90;;;;;;5037440;28;20700;-78
2022/11/24 11:06:11;;;;;;;3.58;3.28;;;15.60;99.90;;;;;;5035015;28;20253;-82
2022/11/24 11:08:39;;;;;;;4.25;3.17;;;15.60;99.90;;;;;;5034019;28;20200;-78
2022/11/24 11:11:18;;;;;;;4.43;3.67;;;15.60;99.90;;;;;;5037366;28;20227;-82
2022/11/24 11:13:56;;;;;;;3.42;3.13;;;15.70;99.90;;;;;;5041736;28;20684;-81
2022/11/24 11:16:27;;;;;;;3.75;3.45;;;15.60;99.90;;;;;;5043127;28;20230;-77
2022/11/24 11:18:55;;;;;;;4.50;3.63;;;15.70;99.90;;;;;;5059474;28;20198;-77
2022/11/24 11:21:32;;;;;;;4.10;3.40;;;15.60;99.90;;;;;;5057232;28;20225;-76
2022/11/24 11:24:03;;;;;;;3.42;3.13;;;15.90;99.90;;;;;;5054809;28;20195;-78
2022/11/24 11:26:34;;;;;;;3.40;3.10;;;16.10;99.90;;;;;;5053250;28;20233;-78
2022/11/24 11:29:12;;;;;;;3.38;2.97;;;16.20;99.90;;;;;;5051343;28;20202;-79
2022/11/24 11:31:40;;;;;;;3.15;2.85;;;16.10;99.90;;;;;;5052322;28;20367;-77
2022/11/24 11:34:15;;;;;;;3.55;3.25;;;15.70;99.90;;;;;;5055058;28;20422;-78
2022/11/24 11:36:46;;;;;;;3.30;2.90;;;15.60;99.90;;;;;;5052724;28;20229;-77
2022/11/24 11:39:27;;;;;;;5.03;3.38;;;15.70;99.90;;;;;;5053727;28;20625;-82
2022/11/24 11:42:06;;;;;;;4.13;3.00;;;15.70;99.90;;;;;;5056485;28;20300;-75
2022/11/24 11:44:40;;;;;;;3.17;2.88;;;15.80;99.90;;;;;;5051418;28;20202;-78
2022/11/24 11:47:19;;;;;;;3.20;2.90;;;15.80;99.90;;;;;;5057173;28;20905;-79
2022/11/24 11:49:48;;;;;;;3.53;2.95;;;15.70;99.90;;;;;;5056698;28;20210;-79
2022/11/24 11:52:42;;;;;;;5.55;3.65;;;15.50;99.90;;;;;;5052905;28;20639;-79
2022/11/24 11:55:39;;;;;;;4.00;3.53;;;15.60;99.90;;;;;;5055588;28;20254;-76
2022/11/24 11:58:39;;;;;;;3.25;2.70;;;15.30;99.90;;;;;;5053054;28;20218;-77
2022/11/24 12:01:20;;;;;;;3.20;2.53;;;15.00;99.90;;;;;;5051297;28;20226;-79
2022/11/24 12:04:02;;;;;;;2.50;2.30;;;15.00;99.90;;;;;;5056921;28;20198;-76
2022/11/24 12:06:48;;;;;;;3.00;2.75;;;14.90;99.90;;;;;;5041461;28;20457;-81
2022/11/24 12:09:29;;;;;;;3.88;3.05;;;15.00;99.90;;;;;;5034155;28;20206;-77
2022/11/24 12:12:15;;;;;;;3.33;3.03;;;15.20;99.90;;;;;;5029734;28;20219;-78
2022/11/24 12:14:55;;;;;;;3.40;3.10;;;15.20;99.90;;;;;;5033981;28;20286;-76
2022/11/24 12:17:32;;;;;;;4.28;2.83;;;15.20;99.90;;;;;;5038564;28;20234;-77
2022/11/24 12:20:16;;;;;;;3.25;2.95;;;15.00;99.90;;;;;;5041184;28;20190;-78
2022/11/24 12:22:51;;;;;;;7.00;4.03;;;15.00;99.90;;;;;;5052128;28;20698;-81
2022/11/24 12:25:27;;;;;;;3.88;3.05;;;15.20;99.90;;;;;;5050879;28;20226;-81
2022/11/24 12:28:06;;;;;;;3.42;3.13;;;15.20;99.90;;;;;;5053817;28;20265;-81
2022/11/24 12:30:43;;;;;;;5.47;3.17;;;15.20;99.90;;;;;;5053696;28;20359;-78
2022/11/24 12:33:28;;;;;;;3.92;3.53;;;15.00;99.90;;;;;;5053145;28;21262;-76
2022/11/24 12:36:03;;;;;;;3.75;3.45;;;15.00;99.90;;;;;;5047603;28;20700;-77
2022/11/24 12:38:42;;;;;;;3.47;3.17;;;14.90;99.90;;;;;;5052325;28;20193;-79
2022/11/24 12:41:37;;;;;;;3.20;2.90;;;14.70;99.90;;;;;;5055306;28;20214;-77
2022/11/24 12:44:18;;;;;;;5.85;3.10;;;14.60;99.90;;;;;;5049955;28;20221;-80
2022/11/24 12:46:55;;;;;;;3.30;3.00;;;14.30;99.90;;;;;;5048155;28;20222;-81
2022/11/24 12:49:30;;;;;;;3.65;3.30;;;14.30;99.90;;;;;;5062804;28;20206;-81
2022/11/24 12:52:03;;;;;;;3.63;3.28;;;14.50;99.90;;;;;;5057451;28;20214;-81
2022/11/24 12:54:37;;;;;;;3.45;2.70;;;14.60;99.90;;;;;;5058989;28;20203;-83
2022/11/24 12:57:13;;;;;;;3.45;2.88;;;14.60;99.90;;;;;;5055775;28;20225;-81
2022/11/24 12:59:48;;;;;;;2.67;2.50;;;14.60;99.90;;;;;;5057940;28;20207;-80
2022/11/24 13:02:27;;;;;;;3.97;3.05;;;14.80;99.90;;;;;;5055577;28;20221;-84
2022/11/24 13:04:59;;;;;;;5.82;2.80;;;14.60;99.90;;;;;;5058223;28;20205;-79
2022/11/24 13:07:40;;;;;;;3.10;2.90;;;14.50;99.90;;;;;;5054859;28;20603;-83
2022/11/24 13:10:27;;;;;;;4.00;2.50;;;14.20;99.90;;;;;;5053281;28;20266;-79
2022/11/24 13:12:57;;;;;;;2.90;2.70;;;14.10;99.90;;;;;;5055684;28;20218;-79
2022/11/24 13:15:26;;;;;;;3.50;2.88;;;14.20;99.90;;;;;;5060519;28;20589;-79